sensor_id;sensor_type;location;lat;lon;timestamp;temperature;humidity
51615;DHT22;37695;52.960;6.188;2022-10-23T00:01:34;11.20;99.90
51615;DHT22;37695;52.960;6.188;2022-10-23T00:04:21;11.20;99.90
51615;DHT22;37695;52.960;6.188;2022-10-23T00:06:47;11.30;99.90
51615;DHT22;37695;52.960;6.188;2022-10-23T00:09:16;11.30;99.90
51615;DHT22;37695;52.960;6.188;2022-10-23T00:11:42;11.20;99.90
51615;DHT22;37695;52.960;6.188;2022-10-23T00:14:09;11.30;99.90
51615;DHT22;37695;52.960;6.188;2022-10-23T00:16:35;11.20;99.90
51615;DHT22;37695;52.960;6.188;2022-10-23T00:19:01;11.20;99.90
51615;DHT22;37695;52.960;6.188;2022-10-23T00:21:26;11.20;99.90
51615;DHT22;37695;52.960;6.188;2022-10-23T00:23:52;11.20;99.90
51615;DHT22;37695;52.960;6.188;2022-10-23T00:26:18;11.20;99.90
51615;DHT22;37695;52.960;6.188;2022-10-23T00:28:46;11.20;99.90
51615;DHT22;37695;52.960;6.188;2022-10-23T00:31:13;11.20;99.90
51615;DHT22;37695;52.960;6.188;2022-10-23T00:33:39;11.20;99.90
51615;DHT22;37695;52.960;6.188;2022-10-23T00:36:06;11.20;99.90
51615;DHT22;37695;52.960;6.188;2022-10-23T00:38:32;11.20;99.90
51615;DHT22;37695;52.960;6.188;2022-10-23T00:40:58;11.20;99.90
51615;DHT22;37695;52.960;6.188;2022-10-23T00:43:26;11.20;99.90
51615;DHT22;37695;52.960;6.188;2022-10-23T00:45:52;11.30;99.90
51615;DHT22;37695;52.960;6.188;2022-10-23T00:48:18;11.20;99.90
51615;DHT22;37695;52.960;6.188;2022-10-23T00:50:45;11.20;99.90
51615;DHT22;37695;52.960;6.188;2022-10-23T00:53:12;11.20;99.90
51615;DHT22;37695;52.960;6.188;2022-10-23T00:55:40;11.20;99.90
51615;DHT22;37695;52.960;6.188;2022-10-23T00:58:15;11.20;99.90
51615;DHT22;37695;52.960;6.188;2022-10-23T01:00:58;11.20;99.90
51615;DHT22;37695;52.960;6.188;2022-10-23T01:03:26;11.20;99.90
51615;DHT22;37695;52.960;6.188;2022-10-23T01:08:39;11.20;99.90
51615;DHT22;37695;52.960;6.188;2022-10-23T01:11:16;11.20;99.90
51615;DHT22;37695;52.960;6.188;2022-10-23T01:17:14;11.20;99.90
51615;DHT22;37695;52.960;6.188;2022-10-23T01:20:03;11.10;99.90
51615;DHT22;37695;52.960;6.188;2022-10-23T01:23:01;11.20;99.90
51615;DHT22;37695;52.960;6.188;2022-10-23T01:28:33;11.10;99.90
51615;DHT22;37695;52.960;6.188;2022-10-23T01:31:04;11.10;99.90
51615;DHT22;37695;52.960;6.188;2022-10-23T01:33:36;11.10;99.90
51615;DHT22;37695;52.960;6.188;2022-10-23T01:36:07;11.10;99.90
51615;DHT22;37695;52.960;6.188;2022-10-23T01:39:22;11.10;99.90
51615;DHT22;37695;52.960;6.188;2022-10-23T01:41:28;11.10;99.90
51615;DHT22;37695;52.960;6.188;2022-10-23T01:44:14;11.00;99.90
51615;DHT22;37695;52.960;6.188;2022-10-23T01:46:41;11.00;99.90
51615;DHT22;37695;52.960;6.188;2022-10-23T01:49:10;11.00;99.90
51615;DHT22;37695;52.960;6.188;2022-10-23T01:51:38;11.00;99.90
51615;DHT22;37695;52.960;6.188;2022-10-23T01:54:08;11.00;99.90
51615;DHT22;37695;52.960;6.188;2022-10-23T01:56:37;11.00;99.90
51615;DHT22;37695;52.960;6.188;2022-10-23T01:59:09;11.00;99.90
51615;DHT22;37695;52.960;6.188;2022-10-23T02:01:39;11.00;99.90
51615;DHT22;37695;52.960;6.188;2022-10-23T02:04:07;11.00;99.90
51615;DHT22;37695;52.960;6.188;2022-10-23T02:06:34;10.90;99.90
51615;DHT22;37695;52.960;6.188;2022-10-23T02:09:00;10.90;99.90
51615;DHT22;37695;52.960;6.188;2022-10-23T02:11:26;10.90;99.90
51615;DHT22;37695;52.960;6.188;2022-10-23T02:14:01;10.80;99.90
51615;DHT22;37695;52.960;6.188;2022-10-23T02:16:38;10.90;99.90
51615;DHT22;37695;52.960;6.188;2022-10-23T02:19:16;10.90;99.90
51615;DHT22;37695;52.960;6.188;2022-10-23T02:21:55;10.80;99.90
51615;DHT22;37695;52.960;6.188;2022-10-23T02:24:30;10.80;99.90
51615;DHT22;37695;52.960;6.188;2022-10-23T02:27:00;10.80;99.90
51615;DHT22;37695;52.960;6.188;2022-10-23T02:29:31;10.70;99.90
51615;DHT22;37695;52.960;6.188;2022-10-23T02:31:58;10.70;99.90
51615;DHT22;37695;52.960;6.188;2022-10-23T02:34:24;10.80;99.90
51615;DHT22;37695;52.960;6.188;2022-10-23T02:36:49;10.70;99.90
51615;DHT22;37695;52.960;6.188;2022-10-23T02:39:15;10.70;99.90
51615;DHT22;37695;52.960;6.188;2022-10-23T02:41:51;10.70;99.90
51615;DHT22;37695;52.960;6.188;2022-10-23T02:44:42;10.80;99.90
51615;DHT22;37695;52.960;6.188;2022-10-23T02:50:28;10.70;99.90
51615;DHT22;37695;52.960;6.188;2022-10-23T02:53:21;10.70;99.90
51615;DHT22;37695;52.960;6.188;2022-10-23T02:56:09;10.70;99.90
51615;DHT22;37695;52.960;6.188;2022-10-23T03:01:14;10.70;99.90
51615;DHT22;37695;52.960;6.188;2022-10-23T03:03:50;10.70;99.90
51615;DHT22;37695;52.960;6.188;2022-10-23T03:06:16;10.80;99.90
51615;DHT22;37695;52.960;6.188;2022-10-23T03:09:04;10.80;99.90
51615;DHT22;37695;52.960;6.188;2022-10-23T03:11:30;10.80;99.90
51615;DHT22;37695;52.960;6.188;2022-10-23T03:13:56;10.70;99.90
51615;DHT22;37695;52.960;6.188;2022-10-23T03:16:21;10.80;99.90
51615;DHT22;37695;52.960;6.188;2022-10-23T03:18:47;10.80;99.90
51615;DHT22;37695;52.960;6.188;2022-10-23T03:21:12;10.80;99.90
51615;DHT22;37695;52.960;6.188;2022-10-23T03:23:38;10.80;99.90
51615;DHT22;37695;52.960;6.188;2022-10-23T03:26:03;10.80;99.90
51615;DHT22;37695;52.960;6.188;2022-10-23T03:28:29;10.80;99.90
51615;DHT22;37695;52.960;6.188;2022-10-23T03:30:55;10.80;99.90
51615;DHT22;37695;52.960;6.188;2022-10-23T03:33:21;10.80;99.90
51615;DHT22;37695;52.960;6.188;2022-10-23T03:35:49;10.80;99.90
51615;DHT22;37695;52.960;6.188;2022-10-23T03:38:15;10.90;99.90
51615;DHT22;37695;52.960;6.188;2022-10-23T03:40:41;10.90;99.90
51615;DHT22;37695;52.960;6.188;2022-10-23T03:43:07;10.90;99.90
51615;DHT22;37695;52.960;6.188;2022-10-23T03:45:33;10.90;99.90
51615;DHT22;37695;52.960;6.188;2022-10-23T03:47:58;10.90;99.90
51615;DHT22;37695;52.960;6.188;2022-10-23T03:50:24;10.90;99.90
51615;DHT22;37695;52.960;6.188;2022-10-23T03:52:50;10.80;99.90
51615;DHT22;37695;52.960;6.188;2022-10-23T03:55:15;10.90;99.90
51615;DHT22;37695;52.960;6.188;2022-10-23T03:57:41;10.90;99.90
51615;DHT22;37695;52.960;6.188;2022-10-23T04:00:08;10.80;99.90
51615;DHT22;37695;52.960;6.188;2022-10-23T04:02:33;10.80;99.90
51615;DHT22;37695;52.960;6.188;2022-10-23T04:04:59;10.80;99.90
51615;DHT22;37695;52.960;6.188;2022-10-23T04:07:24;10.80;99.90
51615;DHT22;37695;52.960;6.188;2022-10-23T04:09:50;10.80;99.90
51615;DHT22;37695;52.960;6.188;2022-10-23T04:12:16;10.80;99.90
51615;DHT22;37695;52.960;6.188;2022-10-23T04:14:41;10.80;99.90
51615;DHT22;37695;52.960;6.188;2022-10-23T04:17:07;10.80;99.90
51615;DHT22;37695;52.960;6.188;2022-10-23T04:19:32;10.70;99.90
51615;DHT22;37695;52.960;6.188;2022-10-23T04:21:58;10.70;99.90
51615;DHT22;37695;52.960;6.188;2022-10-23T04:24:24;10.70;99.90
51615;DHT22;37695;52.960;6.188;2022-10-23T04:26:51;10.70;99.90
51615;DHT22;37695;52.960;6.188;2022-10-23T04:29:16;10.70;99.90
51615;DHT22;37695;52.960;6.188;2022-10-23T04:31:42;10.70;99.90
51615;DHT22;37695;52.960;6.188;2022-10-23T04:34:07;10.70;99.90
51615;DHT22;37695;52.960;6.188;2022-10-23T04:36:33;10.70;99.90
51615;DHT22;37695;52.960;6.188;2022-10-23T04:38:59;10.70;99.90
51615;DHT22;37695;52.960;6.188;2022-10-23T04:41:24;10.60;99.90
51615;DHT22;37695;52.960;6.188;2022-10-23T04:43:50;10.70;99.90
51615;DHT22;37695;52.960;6.188;2022-10-23T04:46:16;10.70;99.90
51615;DHT22;37695;52.960;6.188;2022-10-23T04:48:42;10.60;99.90
51615;DHT22;37695;52.960;6.188;2022-10-23T04:51:08;10.60;99.90
51615;DHT22;37695;52.960;6.188;2022-10-23T04:53:34;10.60;99.90
51615;DHT22;37695;52.960;6.188;2022-10-23T04:56:00;10.60;99.90
51615;DHT22;37695;52.960;6.188;2022-10-23T04:58:27;10.60;99.90
51615;DHT22;37695;52.960;6.188;2022-10-23T05:00:53;10.60;99.90
51615;DHT22;37695;52.960;6.188;2022-10-23T05:03:19;10.60;99.90
51615;DHT22;37695;52.960;6.188;2022-10-23T05:05:45;10.60;99.90
51615;DHT22;37695;52.960;6.188;2022-10-23T05:08:11;10.60;99.90
51615;DHT22;37695;52.960;6.188;2022-10-23T05:10:37;10.60;99.90
51615;DHT22;37695;52.960;6.188;2022-10-23T05:13:03;10.60;99.90
51615;DHT22;37695;52.960;6.188;2022-10-23T05:15:28;10.60;99.90
51615;DHT22;37695;52.960;6.188;2022-10-23T05:17:57;10.50;99.90
51615;DHT22;37695;52.960;6.188;2022-10-23T05:20:27;10.50;99.90
51615;DHT22;37695;52.960;6.188;2022-10-23T05:22:55;10.60;99.90
51615;DHT22;37695;52.960;6.188;2022-10-23T05:25:22;10.50;99.90
51615;DHT22;37695;52.960;6.188;2022-10-23T05:27:48;10.50;99.90
51615;DHT22;37695;52.960;6.188;2022-10-23T05:30:13;10.50;99.90
51615;DHT22;37695;52.960;6.188;2022-10-23T05:32:39;10.50;99.90
51615;DHT22;37695;52.960;6.188;2022-10-23T05:35:11;10.50;99.90
51615;DHT22;37695;52.960;6.188;2022-10-23T05:37:39;10.50;99.90
51615;DHT22;37695;52.960;6.188;2022-10-23T05:40:06;10.50;99.90
51615;DHT22;37695;52.960;6.188;2022-10-23T05:42:32;10.50;99.90
51615;DHT22;37695;52.960;6.188;2022-10-23T05:44:57;10.50;99.90
51615;DHT22;37695;52.960;6.188;2022-10-23T05:47:23;10.50;99.90
51615;DHT22;37695;52.960;6.188;2022-10-23T05:49:48;10.60;99.90
51615;DHT22;37695;52.960;6.188;2022-10-23T05:52:14;10.50;99.90
51615;DHT22;37695;52.960;6.188;2022-10-23T05:54:40;10.50;99.90
51615;DHT22;37695;52.960;6.188;2022-10-23T05:57:05;10.60;99.90
51615;DHT22;37695;52.960;6.188;2022-10-23T05:59:31;10.60;99.90
51615;DHT22;37695;52.960;6.188;2022-10-23T06:01:56;10.60;99.90
51615;DHT22;37695;52.960;6.188;2022-10-23T06:04:22;10.60;99.90
51615;DHT22;37695;52.960;6.188;2022-10-23T06:06:47;10.60;99.90
51615;DHT22;37695;52.960;6.188;2022-10-23T06:09:14;10.70;99.90
51615;DHT22;37695;52.960;6.188;2022-10-23T06:11:40;10.70;99.90
51615;DHT22;37695;52.960;6.188;2022-10-23T06:14:06;10.70;99.90
51615;DHT22;37695;52.960;6.188;2022-10-23T06:16:32;10.70;99.90
51615;DHT22;37695;52.960;6.188;2022-10-23T06:18:57;10.70;99.90
51615;DHT22;37695;52.960;6.188;2022-10-23T06:21:24;10.70;99.90
51615;DHT22;37695;52.960;6.188;2022-10-23T06:23:49;10.70;99.90
51615;DHT22;37695;52.960;6.188;2022-10-23T06:26:17;10.70;99.90
51615;DHT22;37695;52.960;6.188;2022-10-23T06:28:42;10.70;99.90
51615;DHT22;37695;52.960;6.188;2022-10-23T06:31:13;10.70;99.90
51615;DHT22;37695;52.960;6.188;2022-10-23T06:33:40;10.70;99.90
51615;DHT22;37695;52.960;6.188;2022-10-23T06:36:06;10.80;99.90
51615;DHT22;37695;52.960;6.188;2022-10-23T06:38:35;10.80;99.90
51615;DHT22;37695;52.960;6.188;2022-10-23T06:41:05;10.80;99.90
51615;DHT22;37695;52.960;6.188;2022-10-23T06:43:30;10.90;99.90
51615;DHT22;37695;52.960;6.188;2022-10-23T06:45:59;10.90;99.90
51615;DHT22;37695;52.960;6.188;2022-10-23T06:48:25;10.90;99.90
51615;DHT22;37695;52.960;6.188;2022-10-23T06:50:51;10.90;99.90
51615;DHT22;37695;52.960;6.188;2022-10-23T06:53:16;10.90;99.90
51615;DHT22;37695;52.960;6.188;2022-10-23T06:55:42;10.90;99.90
51615;DHT22;37695;52.960;6.188;2022-10-23T06:58:07;11.00;99.90
51615;DHT22;37695;52.960;6.188;2022-10-23T07:00:38;11.00;99.90
51615;DHT22;37695;52.960;6.188;2022-10-23T07:03:04;11.00;99.90
51615;DHT22;37695;52.960;6.188;2022-10-23T07:05:31;11.00;99.90
51615;DHT22;37695;52.960;6.188;2022-10-23T07:07:56;11.10;99.90
51615;DHT22;37695;52.960;6.188;2022-10-23T07:10:22;11.10;99.90
51615;DHT22;37695;52.960;6.188;2022-10-23T07:12:48;11.10;99.90
51615;DHT22;37695;52.960;6.188;2022-10-23T07:15:14;11.10;99.90
51615;DHT22;37695;52.960;6.188;2022-10-23T07:17:40;11.10;99.90
51615;DHT22;37695;52.960;6.188;2022-10-23T07:20:05;11.20;99.90
51615;DHT22;37695;52.960;6.188;2022-10-23T07:22:31;11.20;99.90
51615;DHT22;37695;52.960;6.188;2022-10-23T07:24:57;11.20;99.90
51615;DHT22;37695;52.960;6.188;2022-10-23T07:27:22;11.30;99.90
51615;DHT22;37695;52.960;6.188;2022-10-23T07:29:51;11.30;99.90
51615;DHT22;37695;52.960;6.188;2022-10-23T07:32:17;11.30;99.90
51615;DHT22;37695;52.960;6.188;2022-10-23T07:34:43;11.40;99.90
51615;DHT22;37695;52.960;6.188;2022-10-23T07:37:08;11.40;99.90
51615;DHT22;37695;52.960;6.188;2022-10-23T07:39:34;11.50;99.90
51615;DHT22;37695;52.960;6.188;2022-10-23T07:41:59;11.50;99.90
51615;DHT22;37695;52.960;6.188;2022-10-23T07:44:25;11.50;99.90
51615;DHT22;37695;52.960;6.188;2022-10-23T07:46:50;11.60;99.90
51615;DHT22;37695;52.960;6.188;2022-10-23T07:49:16;11.60;99.90
51615;DHT22;37695;52.960;6.188;2022-10-23T07:51:41;11.60;99.90
51615;DHT22;37695;52.960;6.188;2022-10-23T07:54:10;11.60;99.90
51615;DHT22;37695;52.960;6.188;2022-10-23T07:56:36;11.70;99.90
51615;DHT22;37695;52.960;6.188;2022-10-23T07:59:02;11.70;99.90
51615;DHT22;37695;52.960;6.188;2022-10-23T08:01:31;11.70;99.90
51615;DHT22;37695;52.960;6.188;2022-10-23T08:03:57;11.80;99.90
51615;DHT22;37695;52.960;6.188;2022-10-23T08:06:23;11.80;99.90
51615;DHT22;37695;52.960;6.188;2022-10-23T08:08:48;11.90;99.90
51615;DHT22;37695;52.960;6.188;2022-10-23T08:11:15;12.00;99.90
51615;DHT22;37695;52.960;6.188;2022-10-23T08:13:42;12.00;99.90
51615;DHT22;37695;52.960;6.188;2022-10-23T08:16:09;12.00;99.90
51615;DHT22;37695;52.960;6.188;2022-10-23T08:18:34;12.10;99.90
51615;DHT22;37695;52.960;6.188;2022-10-23T08:21:01;12.10;99.90
51615;DHT22;37695;52.960;6.188;2022-10-23T08:23:28;12.20;99.90
51615;DHT22;37695;52.960;6.188;2022-10-23T08:26:01;12.30;99.90
51615;DHT22;37695;52.960;6.188;2022-10-23T08:28:30;12.30;99.90
51615;DHT22;37695;52.960;6.188;2022-10-23T08:30:55;12.40;99.90
51615;DHT22;37695;52.960;6.188;2022-10-23T08:33:21;12.40;99.90
51615;DHT22;37695;52.960;6.188;2022-10-23T08:35:47;12.50;99.90
51615;DHT22;37695;52.960;6.188;2022-10-23T08:38:12;12.50;99.90
51615;DHT22;37695;52.960;6.188;2022-10-23T08:40:43;12.50;99.90
51615;DHT22;37695;52.960;6.188;2022-10-23T08:45:44;12.60;99.90
51615;DHT22;37695;52.960;6.188;2022-10-23T08:48:18;12.60;99.90
51615;DHT22;37695;52.960;6.188;2022-10-23T08:50:54;12.70;99.90
51615;DHT22;37695;52.960;6.188;2022-10-23T08:56:36;12.80;99.90
51615;DHT22;37695;52.960;6.188;2022-10-23T08:59:28;12.80;99.90
51615;DHT22;37695;52.960;6.188;2022-10-23T09:02:09;12.90;99.90
51615;DHT22;37695;52.960;6.188;2022-10-23T09:04:36;12.90;99.90
51615;DHT22;37695;52.960;6.188;2022-10-23T09:07:26;13.00;99.90
51615;DHT22;37695;52.960;6.188;2022-10-23T09:10:12;13.10;99.90
51615;DHT22;37695;52.960;6.188;2022-10-23T09:12:41;13.20;99.90
51615;DHT22;37695;52.960;6.188;2022-10-23T09:15:28;13.30;99.90
51615;DHT22;37695;52.960;6.188;2022-10-23T09:18:00;13.40;99.90
51615;DHT22;37695;52.960;6.188;2022-10-23T09:20:32;13.50;99.90
51615;DHT22;37695;52.960;6.188;2022-10-23T09:23:07;13.60;99.90
51615;DHT22;37695;52.960;6.188;2022-10-23T09:25:38;13.60;99.90
51615;DHT22;37695;52.960;6.188;2022-10-23T09:28:04;13.70;99.90
51615;DHT22;37695;52.960;6.188;2022-10-23T09:32:59;13.80;99.90
51615;DHT22;37695;52.960;6.188;2022-10-23T09:35:28;13.90;99.90
51615;DHT22;37695;52.960;6.188;2022-10-23T09:37:54;13.90;99.90
51615;DHT22;37695;52.960;6.188;2022-10-23T09:40:38;14.00;99.90
51615;DHT22;37695;52.960;6.188;2022-10-23T09:43:16;14.00;99.90
51615;DHT22;37695;52.960;6.188;2022-10-23T09:45:42;14.00;99.90
51615;DHT22;37695;52.960;6.188;2022-10-23T09:48:11;14.00;99.90
51615;DHT22;37695;52.960;6.188;2022-10-23T09:50:52;14.10;99.90
51615;DHT22;37695;52.960;6.188;2022-10-23T09:53:26;14.10;99.90
51615;DHT22;37695;52.960;6.188;2022-10-23T09:55:55;14.10;99.90
51615;DHT22;37695;52.960;6.188;2022-10-23T09:58:51;14.10;99.90
51615;DHT22;37695;52.960;6.188;2022-10-23T10:01:29;14.10;99.90
51615;DHT22;37695;52.960;6.188;2022-10-23T10:03:57;14.20;99.90
51615;DHT22;37695;52.960;6.188;2022-10-23T10:06:32;14.20;99.90
51615;DHT22;37695;52.960;6.188;2022-10-23T10:09:13;14.30;99.90
51615;DHT22;37695;52.960;6.188;2022-10-23T10:11:52;14.30;99.90
51615;DHT22;37695;52.960;6.188;2022-10-23T10:14:34;14.40;99.90
51615;DHT22;37695;52.960;6.188;2022-10-23T10:17:04;14.50;99.90
51615;DHT22;37695;52.960;6.188;2022-10-23T10:22:38;14.60;99.90
51615;DHT22;37695;52.960;6.188;2022-10-23T10:25:40;14.60;99.90
51615;DHT22;37695;52.960;6.188;2022-10-23T10:28:25;14.70;99.90
51615;DHT22;37695;52.960;6.188;2022-10-23T10:36:38;14.90;99.90
51615;DHT22;37695;52.960;6.188;2022-10-23T10:39:14;14.90;99.90
51615;DHT22;37695;52.960;6.188;2022-10-23T10:50:13;15.00;99.90
51615;DHT22;37695;52.960;6.188;2022-10-23T10:55:26;15.10;99.90
51615;DHT22;37695;52.960;6.188;2022-10-23T10:58:34;15.10;99.90
51615;DHT22;37695;52.960;6.188;2022-10-23T11:01:09;15.10;99.90
51615;DHT22;37695;52.960;6.188;2022-10-23T11:03:47;15.10;99.90
51615;DHT22;37695;52.960;6.188;2022-10-23T11:06:17;15.10;99.90
51615;DHT22;37695;52.960;6.188;2022-10-23T11:08:43;15.20;99.90
51615;DHT22;37695;52.960;6.188;2022-10-23T11:11:17;15.20;99.90
51615;DHT22;37695;52.960;6.188;2022-10-23T11:13:45;15.20;99.90
51615;DHT22;37695;52.960;6.188;2022-10-23T11:16:28;15.20;99.90
51615;DHT22;37695;52.960;6.188;2022-10-23T11:19:03;15.20;99.90
51615;DHT22;37695;52.960;6.188;2022-10-23T11:21:46;15.20;99.90
51615;DHT22;37695;52.960;6.188;2022-10-23T11:30:23;15.10;99.90
51615;DHT22;37695;52.960;6.188;2022-10-23T11:38:31;15.00;99.90
51615;DHT22;37695;52.960;6.188;2022-10-23T11:41:06;15.00;99.90
51615;DHT22;37695;52.960;6.188;2022-10-23T11:43:52;15.00;99.90
51615;DHT22;37695;52.960;6.188;2022-10-23T11:48:48;15.10;99.90
51615;DHT22;37695;52.960;6.188;2022-10-23T11:53:51;15.10;99.90
51615;DHT22;37695;52.960;6.188;2022-10-23T12:01:21;15.10;99.90
51615;DHT22;37695;52.960;6.188;2022-10-23T12:06:42;15.20;99.90
51615;DHT22;37695;52.960;6.188;2022-10-23T12:09:23;15.20;99.90
51615;DHT22;37695;52.960;6.188;2022-10-23T12:14:27;15.20;99.90
51615;DHT22;37695;52.960;6.188;2022-10-23T12:16:54;15.20;99.90
51615;DHT22;37695;52.960;6.188;2022-10-23T12:19:22;15.30;99.90
51615;DHT22;37695;52.960;6.188;2022-10-23T12:21:54;15.30;99.90
51615;DHT22;37695;52.960;6.188;2022-10-23T12:24:41;15.30;99.90
51615;DHT22;37695;52.960;6.188;2022-10-23T12:27:23;15.40;99.90
51615;DHT22;37695;52.960;6.188;2022-10-23T12:30:21;15.40;99.90
51615;DHT22;37695;52.960;6.188;2022-10-23T12:33:02;15.40;99.90
51615;DHT22;37695;52.960;6.188;2022-10-23T12:38:38;15.40;99.90
51615;DHT22;37695;52.960;6.188;2022-10-23T12:41:10;15.40;99.90
51615;DHT22;37695;52.960;6.188;2022-10-23T12:43:37;15.40;99.90
51615;DHT22;37695;52.960;6.188;2022-10-23T12:46:29;15.40;99.90
51615;DHT22;37695;52.960;6.188;2022-10-23T12:48:56;15.50;99.90
51615;DHT22;37695;52.960;6.188;2022-10-23T12:51:33;15.50;99.90
51615;DHT22;37695;52.960;6.188;2022-10-23T12:53:59;15.50;99.90
51615;DHT22;37695;52.960;6.188;2022-10-23T12:56:27;15.50;99.90
51615;DHT22;37695;52.960;6.188;2022-10-23T12:58:58;15.50;99.90
51615;DHT22;37695;52.960;6.188;2022-10-23T13:01:32;15.50;99.90
51615;DHT22;37695;52.960;6.188;2022-10-23T13:04:16;15.50;99.90
51615;DHT22;37695;52.960;6.188;2022-10-23T13:06:46;15.60;99.90
51615;DHT22;37695;52.960;6.188;2022-10-23T13:09:29;15.60;99.90
51615;DHT22;37695;52.960;6.188;2022-10-23T13:11:55;15.60;99.90
51615;DHT22;37695;52.960;6.188;2022-10-23T13:14:37;15.60;99.90
51615;DHT22;37695;52.960;6.188;2022-10-23T13:17:10;15.60;99.90
51615;DHT22;37695;52.960;6.188;2022-10-23T13:19:36;15.60;99.90
51615;DHT22;37695;52.960;6.188;2022-10-23T13:22:04;15.70;99.90
51615;DHT22;37695;52.960;6.188;2022-10-23T13:24:39;15.70;99.90
51615;DHT22;37695;52.960;6.188;2022-10-23T13:27:25;15.70;99.90
51615;DHT22;37695;52.960;6.188;2022-10-23T13:29:55;15.80;99.90
51615;DHT22;37695;52.960;6.188;2022-10-23T13:32:23;15.80;99.90
51615;DHT22;37695;52.960;6.188;2022-10-23T13:34:51;15.80;99.90
51615;DHT22;37695;52.960;6.188;2022-10-23T13:37:29;15.80;99.90
51615;DHT22;37695;52.960;6.188;2022-10-23T13:40:03;15.80;99.90
51615;DHT22;37695;52.960;6.188;2022-10-23T13:42:29;15.90;99.90
51615;DHT22;37695;52.960;6.188;2022-10-23T13:44:55;15.80;99.90
51615;DHT22;37695;52.960;6.188;2022-10-23T13:47:20;15.80;99.90
51615;DHT22;37695;52.960;6.188;2022-10-23T13:49:46;15.80;99.90
51615;DHT22;37695;52.960;6.188;2022-10-23T13:52:13;15.80;99.90
51615;DHT22;37695;52.960;6.188;2022-10-23T13:54:39;15.80;99.90
51615;DHT22;37695;52.960;6.188;2022-10-23T13:57:10;15.80;99.90
51615;DHT22;37695;52.960;6.188;2022-10-23T13:59:37;15.80;99.90
51615;DHT22;37695;52.960;6.188;2022-10-23T14:02:05;15.80;99.90
51615;DHT22;37695;52.960;6.188;2022-10-23T14:04:38;15.80;99.90
51615;DHT22;37695;52.960;6.188;2022-10-23T14:07:04;15.80;99.90
51615;DHT22;37695;52.960;6.188;2022-10-23T14:09:29;15.80;99.90
51615;DHT22;37695;52.960;6.188;2022-10-23T14:11:55;15.80;99.90
51615;DHT22;37695;52.960;6.188;2022-10-23T14:14:21;15.80;99.90
51615;DHT22;37695;52.960;6.188;2022-10-23T14:16:46;15.80;99.90
51615;DHT22;37695;52.960;6.188;2022-10-23T14:19:12;15.80;99.90
51615;DHT22;37695;52.960;6.188;2022-10-23T14:21:37;15.80;99.90
51615;DHT22;37695;52.960;6.188;2022-10-23T14:24:03;15.90;99.90
51615;DHT22;37695;52.960;6.188;2022-10-23T14:26:29;15.90;99.90
51615;DHT22;37695;52.960;6.188;2022-10-23T14:28:56;15.90;99.90
51615;DHT22;37695;52.960;6.188;2022-10-23T14:31:21;15.90;99.90
51615;DHT22;37695;52.960;6.188;2022-10-23T14:33:51;15.90;99.90
51615;DHT22;37695;52.960;6.188;2022-10-23T14:36:18;15.90;99.90
51615;DHT22;37695;52.960;6.188;2022-10-23T14:38:44;16.00;99.90
51615;DHT22;37695;52.960;6.188;2022-10-23T14:41:15;16.00;99.90
51615;DHT22;37695;52.960;6.188;2022-10-23T14:43:40;16.00;99.90
51615;DHT22;37695;52.960;6.188;2022-10-23T14:46:12;16.00;99.90
51615;DHT22;37695;52.960;6.188;2022-10-23T14:48:37;16.00;99.90
51615;DHT22;37695;52.960;6.188;2022-10-23T14:51:06;16.00;99.90
51615;DHT22;37695;52.960;6.188;2022-10-23T14:53:32;16.00;99.90
51615;DHT22;37695;52.960;6.188;2022-10-23T14:56:02;16.00;99.90
51615;DHT22;37695;52.960;6.188;2022-10-23T14:58:28;16.00;99.90
51615;DHT22;37695;52.960;6.188;2022-10-23T15:00:58;16.00;99.90
51615;DHT22;37695;52.960;6.188;2022-10-23T15:03:24;16.00;99.90
51615;DHT22;37695;52.960;6.188;2022-10-23T15:05:50;16.00;99.90
51615;DHT22;37695;52.960;6.188;2022-10-23T15:08:15;16.00;99.90
51615;DHT22;37695;52.960;6.188;2022-10-23T15:10:41;16.00;99.90
51615;DHT22;37695;52.960;6.188;2022-10-23T15:13:06;16.00;99.90
51615;DHT22;37695;52.960;6.188;2022-10-23T15:15:32;16.00;99.90
51615;DHT22;37695;52.960;6.188;2022-10-23T15:17:58;16.00;99.90
51615;DHT22;37695;52.960;6.188;2022-10-23T15:20:23;16.00;99.90
51615;DHT22;37695;52.960;6.188;2022-10-23T15:22:48;16.00;99.90
51615;DHT22;37695;52.960;6.188;2022-10-23T15:25:14;16.00;99.90
51615;DHT22;37695;52.960;6.188;2022-10-23T15:27:40;16.00;99.90
51615;DHT22;37695;52.960;6.188;2022-10-23T15:30:05;16.00;99.90
51615;DHT22;37695;52.960;6.188;2022-10-23T15:32:31;16.00;99.90
51615;DHT22;37695;52.960;6.188;2022-10-23T15:34:56;16.00;99.90
51615;DHT22;37695;52.960;6.188;2022-10-23T15:37:24;16.10;99.90
51615;DHT22;37695;52.960;6.188;2022-10-23T15:39:50;16.00;99.90
51615;DHT22;37695;52.960;6.188;2022-10-23T15:42:16;16.00;99.90
51615;DHT22;37695;52.960;6.188;2022-10-23T15:44:43;15.90;99.90
51615;DHT22;37695;52.960;6.188;2022-10-23T15:47:09;15.90;99.90
51615;DHT22;37695;52.960;6.188;2022-10-23T15:49:35;15.80;99.90
51615;DHT22;37695;52.960;6.188;2022-10-23T15:52:02;15.80;99.90
51615;DHT22;37695;52.960;6.188;2022-10-23T15:54:29;15.80;99.90
51615;DHT22;37695;52.960;6.188;2022-10-23T15:56:54;15.70;99.90
51615;DHT22;37695;52.960;6.188;2022-10-23T15:59:23;15.70;99.90
51615;DHT22;37695;52.960;6.188;2022-10-23T16:01:49;15.60;99.90
51615;DHT22;37695;52.960;6.188;2022-10-23T16:04:15;15.60;99.90
51615;DHT22;37695;52.960;6.188;2022-10-23T16:06:42;15.50;99.90
51615;DHT22;37695;52.960;6.188;2022-10-23T16:09:08;15.50;99.90
51615;DHT22;37695;52.960;6.188;2022-10-23T16:11:35;15.50;99.90
51615;DHT22;37695;52.960;6.188;2022-10-23T16:14:02;15.50;99.90
51615;DHT22;37695;52.960;6.188;2022-10-23T16:16:29;15.40;99.90
51615;DHT22;37695;52.960;6.188;2022-10-23T16:18:57;15.40;99.90
51615;DHT22;37695;52.960;6.188;2022-10-23T16:21:24;15.40;99.90
51615;DHT22;37695;52.960;6.188;2022-10-23T16:23:52;15.40;99.90
51615;DHT22;37695;52.960;6.188;2022-10-23T16:26:18;15.40;99.90
51615;DHT22;37695;52.960;6.188;2022-10-23T16:28:44;15.40;99.90
51615;DHT22;37695;52.960;6.188;2022-10-23T16:31:12;15.40;99.90
51615;DHT22;37695;52.960;6.188;2022-10-23T16:33:38;15.40;99.90
51615;DHT22;37695;52.960;6.188;2022-10-23T16:36:05;15.30;99.90
51615;DHT22;37695;52.960;6.188;2022-10-23T16:38:32;15.30;99.90
51615;DHT22;37695;52.960;6.188;2022-10-23T16:40:58;15.30;99.90
51615;DHT22;37695;52.960;6.188;2022-10-23T16:43:25;15.30;99.90
51615;DHT22;37695;52.960;6.188;2022-10-23T16:46:09;15.20;99.90
51615;DHT22;37695;52.960;6.188;2022-10-23T16:48:36;15.20;99.90
51615;DHT22;37695;52.960;6.188;2022-10-23T16:51:06;15.10;99.90
51615;DHT22;37695;52.960;6.188;2022-10-23T16:53:33;15.10;99.90
51615;DHT22;37695;52.960;6.188;2022-10-23T16:55:58;15.10;99.90
51615;DHT22;37695;52.960;6.188;2022-10-23T16:58:24;15.10;99.90